sensor_id;sensor_type;location;lat;lon;timestamp;pressure;altitude;pressure_sealevel;temperature;humidity
62025;BME280;47978;49.118;12.146;2023-12-20T00:00:12;97368.09;;;1.58;100.00
62025;BME280;47978;49.118;12.146;2023-12-20T00:04:14;97368.22;;;1.69;100.00
62025;BME280;47978;49.118;12.146;2023-12-20T00:08:15;97357.13;;;1.75;100.00
62025;BME280;47978;49.118;12.146;2023-12-20T00:12:18;97353.41;;;2.03;100.00
62025;BME280;47978;49.118;12.146;2023-12-20T00:16:20;97358.03;;;2.30;100.00
62025;BME280;47978;49.118;12.146;2023-12-20T00:20:21;97352.72;;;2.40;100.00
62025;BME280;47978;49.118;12.146;2023-12-20T00:24:23;97358.47;;;2.44;100.00
62025;BME280;47978;49.118;12.146;2023-12-20T00:28:25;97353.69;;;2.29;100.00
62025;BME280;47978;49.118;12.146;2023-12-20T00:32:27;97336.31;;;2.13;100.00
62025;BME280;47978;49.118;12.146;2023-12-20T00:36:28;97339.09;;;2.18;100.00
62025;BME280;47978;49.118;12.146;2023-12-20T00:40:30;97341.22;;;1.89;100.00
62025;BME280;47978;49.118;12.146;2023-12-20T00:44:32;97338.38;;;2.01;100.00
62025;BME280;47978;49.118;12.146;2023-12-20T00:48:34;97334.56;;;1.80;100.00
62025;BME280;47978;49.118;12.146;2023-12-20T00:52:35;97308.31;;;1.96;100.00
62025;BME280;47978;49.118;12.146;2023-12-20T00:56:36;97315.44;;;1.97;100.00
62025;BME280;47978;49.118;12.146;2023-12-20T01:00:39;97317.63;;;2.00;100.00
62025;BME280;47978;49.118;12.146;2023-12-20T01:04:44;97325.31;;;2.30;100.00
62025;BME280;47978;49.118;12.146;2023-12-20T01:08:45;97330.16;;;2.23;100.00
62025;BME280;47978;49.118;12.146;2023-12-20T01:12:47;97326.31;;;2.46;100.00
62025;BME280;47978;49.118;12.146;2023-12-20T01:16:50;97324.84;;;2.11;100.00
62025;BME280;47978;49.118;12.146;2023-12-20T01:20:51;97327.06;;;2.14;100.00
62025;BME280;47978;49.118;12.146;2023-12-20T01:24:52;97324.84;;;2.11;100.00
62025;BME280;47978;49.118;12.146;2023-12-20T01:28:54;97326.34;;;2.24;100.00
62025;BME280;47978;49.118;12.146;2023-12-20T01:32:56;97318.97;;;2.24;100.00
62025;BME280;47978;49.118;12.146;2023-12-20T01:36:58;97323.38;;;2.25;100.00
62025;BME280;47978;49.118;12.146;2023-12-20T01:40:59;97301.22;;;1.95;100.00
62025;BME280;47978;49.118;12.146;2023-12-20T01:45:00;97295.41;;;2.13;100.00
62025;BME280;47978;49.118;12.146;2023-12-20T01:49:03;97277.19;;;2.19;100.00
62025;BME280;47978;49.118;12.146;2023-12-20T01:53:05;97289.56;;;1.99;100.00
62025;BME280;47978;49.118;12.146;2023-12-20T01:57:08;97284.28;;;1.93;100.00
62025;BME280;47978;49.118;12.146;2023-12-20T02:01:10;97282.88;;;1.90;100.00
62025;BME280;47978;49.118;12.146;2023-12-20T02:05:13;97281.31;;;1.94;100.00
62025;BME280;47978;49.118;12.146;2023-12-20T02:09:15;97292.69;;;2.40;100.00
62025;BME280;47978;49.118;12.146;2023-12-20T02:13:16;97285.81;;;2.65;100.00
62025;BME280;47978;49.118;12.146;2023-12-20T02:17:18;97286.34;;;2.67;100.00
62025;BME280;47978;49.118;12.146;2023-12-20T02:25:29;97258.53;;;2.70;100.00
62025;BME280;47978;49.118;12.146;2023-12-20T02:29:30;97259.53;;;2.59;100.00
62025;BME280;47978;49.118;12.146;2023-12-20T02:33:32;97255.78;;;2.65;100.00
62025;BME280;47978;49.118;12.146;2023-12-20T02:37:33;97238.09;;;2.73;100.00
62025;BME280;47978;49.118;12.146;2023-12-20T02:41:37;97250.13;;;2.77;100.00
62025;BME280;47978;49.118;12.146;2023-12-20T02:45:38;97247.28;;;2.61;100.00
62025;BME280;47978;49.118;12.146;2023-12-20T02:49:40;97256.91;;;2.37;100.00
62025;BME280;47978;49.118;12.146;2023-12-20T02:53:41;97247.59;;;2.33;100.00
62025;BME280;47978;49.118;12.146;2023-12-20T02:57:44;97248.28;;;2.18;100.00
62025;BME280;47978;49.118;12.146;2023-12-20T03:01:46;97243.91;;;2.17;100.00
62025;BME280;47978;49.118;12.146;2023-12-20T03:05:47;97237.25;;;2.35;100.00
62025;BME280;47978;49.118;12.146;2023-12-20T03:09:49;97237.88;;;2.15;100.00
62025;BME280;47978;49.118;12.146;2023-12-20T03:14:12;97231.91;;;2.18;100.00
62025;BME280;47978;49.118;12.146;2023-12-20T03:18:13;97230.16;;;2.07;100.00
62025;BME280;47978;49.118;12.146;2023-12-20T03:22:14;97228.00;;;2.09;100.00
62025;BME280;47978;49.118;12.146;2023-12-20T03:26:16;97221.56;;;2.20;100.00
62025;BME280;47978;49.118;12.146;2023-12-20T03:30:19;97234.03;;;2.43;100.00
62025;BME280;47978;49.118;12.146;2023-12-20T03:34:20;97228.81;;;2.36;100.00
62025;BME280;47978;49.118;12.146;2023-12-20T03:38:21;97229.78;;;2.57;100.00
62025;BME280;47978;49.118;12.146;2023-12-20T03:42:23;97230.84;;;2.88;100.00
62025;BME280;47978;49.118;12.146;2023-12-20T03:46:26;97236.69;;;2.70;100.00
62025;BME280;47978;49.118;12.146;2023-12-20T03:50:28;97233.69;;;2.66;100.00
62025;BME280;47978;49.118;12.146;2023-12-20T03:54:30;97238.13;;;2.78;100.00
62025;BME280;47978;49.118;12.146;2023-12-20T03:58:31;97238.03;;;3.05;100.00
62025;BME280;47978;49.118;12.146;2023-12-20T04:02:34;97235.06;;;3.11;100.00
62025;BME280;47978;49.118;12.146;2023-12-20T04:06:36;97230.97;;;3.14;100.00
62025;BME280;47978;49.118;12.146;2023-12-20T04:10:37;97243.28;;;3.17;100.00
62025;BME280;47978;49.118;12.146;2023-12-20T04:14:39;97239.44;;;3.12;100.00
62025;BME280;47978;49.118;12.146;2023-12-20T04:18:41;97245.09;;;3.01;100.00
62025;BME280;47978;49.118;12.146;2023-12-20T04:22:43;97238.66;;;3.17;100.00
62025;BME280;47978;49.118;12.146;2023-12-20T04:26:44;97239.72;;;3.11;100.00
62025;BME280;47978;49.118;12.146;2023-12-20T04:30:46;97243.78;;;3.08;100.00
62025;BME280;47978;49.118;12.146;2023-12-20T04:34:49;97245.13;;;3.06;100.00
62025;BME280;47978;49.118;12.146;2023-12-20T04:38:50;97244.34;;;3.10;100.00
62025;BME280;47978;49.118;12.146;2023-12-20T04:42:51;97244.34;;;3.10;100.00
62025;BME280;47978;49.118;12.146;2023-12-20T04:46:53;97254.75;;;3.19;100.00
62025;BME280;47978;49.118;12.146;2023-12-20T04:50:56;97239.22;;;3.19;100.00
62025;BME280;47978;49.118;12.146;2023-12-20T04:54:57;97242.19;;;3.18;100.00
62025;BME280;47978;49.118;12.146;2023-12-20T04:58:59;97239.22;;;3.19;100.00
62025;BME280;47978;49.118;12.146;2023-12-20T05:03:00;97245.53;;;3.30;100.00
62025;BME280;47978;49.118;12.146;2023-12-20T05:07:03;97235.97;;;3.32;100.00
62025;BME280;47978;49.118;12.146;2023-12-20T05:11:05;97234.88;;;3.28;100.00
62025;BME280;47978;49.118;12.146;2023-12-20T05:15:06;97234.88;;;3.28;100.00
62025;BME280;47978;49.118;12.146;2023-12-20T05:19:08;97241.13;;;3.24;100.00
62025;BME280;47978;49.118;12.146;2023-12-20T05:23:10;97237.00;;;3.16;100.00
62025;BME280;47978;49.118;12.146;2023-12-20T05:27:12;97239.50;;;3.23;100.00
62025;BME280;47978;49.118;12.146;2023-12-20T05:31:13;97249.91;;;3.26;100.00
62025;BME280;47978;49.118;12.146;2023-12-20T05:35:15;97260.06;;;3.41;100.00
62025;BME280;47978;49.118;12.146;2023-12-20T05:39:18;97269.09;;;3.41;100.00
62025;BME280;47978;49.118;12.146;2023-12-20T05:43:19;97269.63;;;3.38;100.00
62025;BME280;47978;49.118;12.146;2023-12-20T05:47:21;97270.97;;;3.35;100.00
62025;BME280;47978;49.118;12.146;2023-12-20T05:51:22;97275.09;;;3.38;100.00
62025;BME280;47978;49.118;12.146;2023-12-20T05:55:25;97295.84;;;3.34;100.00
62025;BME280;47978;49.118;12.146;2023-12-20T05:59:26;97301.84;;;3.31;100.00
62025;BME280;47978;49.118;12.146;2023-12-20T06:03:28;97301.59;;;3.37;100.00
62025;BME280;47978;49.118;12.146;2023-12-20T06:07:29;97309.22;;;3.30;100.00
62025;BME280;47978;49.118;12.146;2023-12-20T06:11:32;97315.75;;;3.29;100.00
62025;BME280;47978;49.118;12.146;2023-12-20T06:15:33;97311.91;;;3.25;100.00
62025;BME280;47978;49.118;12.146;2023-12-20T06:19:35;97325.09;;;3.38;100.00
62025;BME280;47978;49.118;12.146;2023-12-20T06:23:36;97324.59;;;3.42;100.00
62025;BME280;47978;49.118;12.146;2023-12-20T06:27:39;97324.44;;;3.16;100.00
62025;BME280;47978;49.118;12.146;2023-12-20T06:31:40;97335.00;;;3.07;100.00
62025;BME280;47978;49.118;12.146;2023-12-20T06:35:42;97327.41;;;3.14;100.00
62025;BME280;47978;49.118;12.146;2023-12-20T06:39:43;97339.72;;;3.17;100.00
62025;BME280;47978;49.118;12.146;2023-12-20T06:43:46;97328.91;;;3.32;100.00
62025;BME280;47978;49.118;12.146;2023-12-20T06:47:51;97324.25;;;3.28;100.00
62025;BME280;47978;49.118;12.146;2023-12-20T06:51:52;97343.03;;;3.24;100.00
62025;BME280;47978;49.118;12.146;2023-12-20T06:55:53;97349.13;;;3.31;100.00
62025;BME280;47978;49.118;12.146;2023-12-20T06:59:56;97358.31;;;3.20;100.00
62025;BME280;47978;49.118;12.146;2023-12-20T07:03:58;97356.16;;;3.22;100.00
62025;BME280;47978;49.118;12.146;2023-12-20T07:07:59;97367.44;;;3.31;100.00
62025;BME280;47978;49.118;12.146;2023-12-20T07:12:01;97362.44;;;3.23;100.00
62025;BME280;47978;49.118;12.146;2023-12-20T07:16:04;97367.09;;;3.22;100.00
62025;BME280;47978;49.118;12.146;2023-12-20T07:20:06;97370.44;;;3.34;100.00
62025;BME280;47978;49.118;12.146;2023-12-20T07:24:08;97370.97;;;3.31;100.00
62025;BME280;47978;49.118;12.146;2023-12-20T07:28:09;97384.69;;;3.36;100.00
62025;BME280;47978;49.118;12.146;2023-12-20T07:32:12;97387.94;;;3.33;100.00
62025;BME280;47978;49.118;12.146;2023-12-20T07:36:14;97397.97;;;3.23;100.00
62025;BME280;47978;49.118;12.146;2023-12-20T07:40:15;97397.53;;;3.36;100.00
62025;BME280;47978;49.118;12.146;2023-12-20T07:44:16;97409.72;;;3.23;100.00
62025;BME280;47978;49.118;12.146;2023-12-20T07:48:19;97410.34;;;3.30;100.00
62025;BME280;47978;49.118;12.146;2023-12-20T07:52:21;97414.19;;;3.34;100.00
62025;BME280;47978;49.118;12.146;2023-12-20T07:56:22;97420.22;;;3.36;100.00
62025;BME280;47978;49.118;12.146;2023-12-20T08:00:24;97423.00;;;3.42;100.00
62025;BME280;47978;49.118;12.146;2023-12-20T08:04:26;97429.81;;;3.39;100.00
62025;BME280;47978;49.118;12.146;2023-12-20T08:08:28;97428.22;;;3.48;100.00
62025;BME280;47978;49.118;12.146;2023-12-20T08:12:29;97428.00;;;3.55;100.00
62025;BME280;47978;49.118;12.146;2023-12-20T08:16:31;97438.53;;;3.41;100.00
62025;BME280;47978;49.118;12.146;2023-12-20T08:20:33;97438.88;;;3.45;100.00
62025;BME280;47978;49.118;12.146;2023-12-20T08:24:41;97445.81;;;3.63;100.00
62025;BME280;47978;49.118;12.146;2023-12-20T08:28:42;97452.53;;;3.50;100.00
62025;BME280;47978;49.118;12.146;2023-12-20T08:32:44;97451.78;;;3.54;100.00
62025;BME280;47978;49.118;12.146;2023-12-20T08:36:47;97456.66;;;3.52;100.00
62025;BME280;47978;49.118;12.146;2023-12-20T08:40:48;97462.84;;;3.37;100.00
62025;BME280;47978;49.118;12.146;2023-12-20T08:44:49;97452.69;;;3.33;100.00
62025;BME280;47978;49.118;12.146;2023-12-20T08:48:51;97439.94;;;3.44;100.00
62025;BME280;47978;49.118;12.146;2023-12-20T08:52:54;97440.25;;;3.47;100.00
62025;BME280;47978;49.118;12.146;2023-12-20T08:56:55;97444.69;;;3.58;100.00
62025;BME280;47978;49.118;12.146;2023-12-20T09:00:57;97437.28;;;3.54;100.00
62025;BME280;47978;49.118;12.146;2023-12-20T09:04:58;97444.47;;;3.65;100.00
62025;BME280;47978;49.118;12.146;2023-12-20T09:09:01;97437.47;;;3.79;100.00
62025;BME280;47978;49.118;12.146;2023-12-20T09:13:03;97429.13;;;3.59;100.00
62025;BME280;47978;49.118;12.146;2023-12-20T09:17:04;97440.78;;;3.87;100.00
62025;BME280;47978;49.118;12.146;2023-12-20T09:21:06;97437.91;;;3.66;100.00
62025;BME280;47978;49.118;12.146;2023-12-20T09:25:09;97434.28;;;3.98;100.00
62025;BME280;47978;49.118;12.146;2023-12-20T09:29:10;97448.53;;;4.00;100.00
62025;BME280;47978;49.118;12.146;2023-12-20T09:33:11;97451.22;;;3.95;100.00
62025;BME280;47978;49.118;12.146;2023-12-20T09:37:13;97457.78;;;3.94;100.00
62025;BME280;47978;49.118;12.146;2023-12-20T09:41:16;97456.16;;;3.93;100.00
62025;BME280;47978;49.118;12.146;2023-12-20T09:45:19;97450.38;;;3.89;100.00
62025;BME280;47978;49.118;12.146;2023-12-20T09:49:21;97439.22;;;3.96;100.00
62025;BME280;47978;49.118;12.146;2023-12-20T09:53:22;97438.16;;;4.02;100.00
62025;BME280;47978;49.118;12.146;2023-12-20T09:57:27;97421.66;;;3.92;100.00
62025;BME280;47978;49.118;12.146;2023-12-20T10:01:28;97420.16;;;4.16;100.00
62025;BME280;47978;49.118;12.146;2023-12-20T10:05:30;97426.16;;;4.13;100.00
62025;BME280;47978;49.118;12.146;2023-12-20T10:09:32;97421.81;;;4.22;100.00
62025;BME280;47978;49.118;12.146;2023-12-20T10:13:37;97426.47;;;4.22;100.00
62025;BME280;47978;49.118;12.146;2023-12-20T10:17:40;97434.50;;;4.44;100.00
62025;BME280;47978;49.118;12.146;2023-12-20T10:21:42;97428.41;;;4.26;100.00
62025;BME280;47978;49.118;12.146;2023-12-20T10:25:47;97418.59;;;4.36;100.00
62025;BME280;47978;49.118;12.146;2023-12-20T10:29:59;97426.59;;;4.53;100.00
62025;BME280;47978;49.118;12.146;2023-12-20T10:34:01;97421.34;;;4.41;100.00
62025;BME280;47978;49.118;12.146;2023-12-20T10:38:04;97410.13;;;4.42;100.00
62025;BME280;47978;49.118;12.146;2023-12-20T10:42:06;97414.47;;;4.38;100.00
62025;BME280;47978;49.118;12.146;2023-12-20T10:46:11;97420.28;;;4.52;100.00
62025;BME280;47978;49.118;12.146;2023-12-20T10:50:12;97421.13;;;4.63;100.00
62025;BME280;47978;49.118;12.146;2023-12-20T10:54:14;97416.47;;;4.53;100.00
62025;BME280;47978;49.118;12.146;2023-12-20T10:58:16;97413.19;;;4.56;100.00
62025;BME280;47978;49.118;12.146;2023-12-20T11:02:21;97421.41;;;4.56;100.00
62025;BME280;47978;49.118;12.146;2023-12-20T11:06:26;97417.56;;;4.47;100.00
62025;BME280;47978;49.118;12.146;2023-12-20T11:10:29;97414.19;;;4.29;100.00
62025;BME280;47978;49.118;12.146;2023-12-20T11:14:33;97404.59;;;4.32;100.00
62025;BME280;47978;49.118;12.146;2023-12-20T11:18:37;97395.63;;;4.42;100.00
62025;BME280;47978;49.118;12.146;2023-12-20T11:22:51;97382.50;;;4.54;100.00
62025;BME280;47978;49.118;12.146;2023-12-20T11:26:55;97374.88;;;4.71;100.00
62025;BME280;47978;49.118;12.146;2023-12-20T11:30:57;97373.25;;;4.91;100.00
62025;BME280;47978;49.118;12.146;2023-12-20T11:35:01;97376.84;;;5.02;97.72
62025;BME280;47978;49.118;12.146;2023-12-20T11:39:18;97367.78;;;5.11;98.76
62025;BME280;47978;49.118;12.146;2023-12-20T11:43:30;97371.06;;;5.03;97.27
62025;BME280;47978;49.118;12.146;2023-12-20T11:47:32;97360.66;;;4.80;97.77
62025;BME280;47978;49.118;12.146;2023-12-20T11:51:35;97368.03;;;4.74;97.57
62025;BME280;47978;49.118;12.146;2023-12-20T11:55:41;97354.38;;;4.84;95.38
62025;BME280;47978;49.118;12.146;2023-12-20T11:59:42;97350.78;;;4.94;94.67
62025;BME280;47978;49.118;12.146;2023-12-20T12:03:44;97356.56;;;5.03;95.50
62025;BME280;47978;49.118;12.146;2023-12-20T12:07:47;97348.03;;;5.09;95.57
62025;BME280;47978;49.118;12.146;2023-12-20T12:11:49;97351.06;;;5.03;94.67
62025;BME280;47978;49.118;12.146;2023-12-20T12:15:50;97344.50;;;4.93;95.33
62025;BME280;47978;49.118;12.146;2023-12-20T12:19:51;97354.91;;;4.81;94.24
62025;BME280;47978;49.118;12.146;2023-12-20T12:24:07;97349.41;;;4.76;95.40
62025;BME280;47978;49.118;12.146;2023-12-20T12:28:09;97362.28;;;4.81;94.87
62025;BME280;47978;49.118;12.146;2023-12-20T12:32:10;97367.47;;;4.72;94.76
62025;BME280;47978;49.118;12.146;2023-12-20T12:36:12;97356.53;;;4.72;95.44
62025;BME280;47978;49.118;12.146;2023-12-20T12:40:15;97351.03;;;4.62;95.28
62025;BME280;47978;49.118;12.146;2023-12-20T12:44:17;97363.94;;;4.77;96.87
62025;BME280;47978;49.118;12.146;2023-12-20T12:48:18;97355.19;;;4.85;96.39
62025;BME280;47978;49.118;12.146;2023-12-20T12:52:20;97345.84;;;4.65;95.83
62025;BME280;47978;49.118;12.146;2023-12-20T12:56:23;97336.28;;;4.73;95.77
62025;BME280;47978;49.118;12.146;2023-12-20T13:00:24;97337.63;;;4.65;96.80
62025;BME280;47978;49.118;12.146;2023-12-20T13:04:26;97340.63;;;4.64;96.71
62025;BME280;47978;49.118;12.146;2023-12-20T13:08:27;97339.28;;;4.82;97.17
62025;BME280;47978;49.118;12.146;2023-12-20T13:12:31;97328.88;;;4.94;96.17
62025;BME280;47978;49.118;12.146;2023-12-20T13:16:32;97339.00;;;4.83;95.39
62025;BME280;47978;49.118;12.146;2023-12-20T13:20:34;97338.72;;;4.80;95.84
62025;BME280;47978;49.118;12.146;2023-12-20T13:24:35;97341.44;;;4.49;97.45
62025;BME280;47978;49.118;12.146;2023-12-20T13:28:38;97344.72;;;4.46;99.08
62025;BME280;47978;49.118;12.146;2023-12-20T13:32:39;97345.22;;;4.38;99.33
62025;BME280;47978;49.118;12.146;2023-12-20T13:36:41;97338.41;;;4.40;99.87
62025;BME280;47978;49.118;12.146;2023-12-20T13:40:43;97342.78;;;4.41;99.10
62025;BME280;47978;49.118;12.146;2023-12-20T13:44:46;97345.53;;;4.46;99.02
62025;BME280;47978;49.118;12.146;2023-12-20T13:48:48;97336.50;;;4.46;98.41
62025;BME280;47978;49.118;12.146;2023-12-20T13:52:49;97341.41;;;4.39;98.37
62025;BME280;47978;49.118;12.146;2023-12-20T13:56:50;97353.16;;;4.34;99.01
62025;BME280;47978;49.118;12.146;2023-12-20T14:01:10;97352.31;;;4.28;99.44
62025;BME280;47978;49.118;12.146;2023-12-20T14:05:12;97354.53;;;4.32;99.17
62025;BME280;47978;49.118;12.146;2023-12-20T14:09:13;97363.84;;;4.36;98.85
62025;BME280;47978;49.118;12.146;2023-12-20T14:13:15;97356.19;;;4.33;99.12
62025;BME280;47978;49.118;12.146;2023-12-20T14:17:18;97377.78;;;4.29;99.27
62025;BME280;47978;49.118;12.146;2023-12-20T14:21:19;97366.56;;;4.25;98.66
62025;BME280;47978;49.118;12.146;2023-12-20T14:25:20;97376.91;;;4.18;99.66
62025;BME280;47978;49.118;12.146;2023-12-20T14:29:22;97373.91;;;4.20;98.28
62025;BME280;47978;49.118;12.146;2023-12-20T14:33:28;97373.34;;;4.13;99.34
62025;BME280;47978;49.118;12.146;2023-12-20T14:37:29;97360.75;;;4.12;99.93
62025;BME280;47978;49.118;12.146;2023-12-20T14:41:31;97358.84;;;4.07;100.00
62025;BME280;47978;49.118;12.146;2023-12-20T14:45:33;97348.72;;;4.13;100.00
62025;BME280;47978;49.118;12.146;2023-12-20T14:49:35;97353.03;;;3.98;100.00
62025;BME280;47978;49.118;12.146;2023-12-20T14:53:37;97358.78;;;3.97;100.00
62025;BME280;47978;49.118;12.146;2023-12-20T14:57:38;97348.13;;;4.00;99.62
62025;BME280;47978;49.118;12.146;2023-12-20T15:01:40;97351.69;;;3.96;100.00
62025;BME280;47978;49.118;12.146;2023-12-20T15:05:43;97340.44;;;3.87;99.94
62025;BME280;47978;49.118;12.146;2023-12-20T15:09:44;97342.63;;;3.90;99.80
62025;BME280;47978;49.118;12.146;2023-12-20T15:13:47;97335.78;;;3.98;98.19
62025;BME280;47978;49.118;12.146;2023-12-20T15:17:48;97328.13;;;3.95;98.06
62025;BME280;47978;49.118;12.146;2023-12-20T15:21:51;97326.00;;;4.12;97.76
62025;BME280;47978;49.118;12.146;2023-12-20T15:25:53;97324.09;;;4.13;97.10
62025;BME280;47978;49.118;12.146;2023-12-20T15:29:54;97317.22;;;4.05;96.93
62025;BME280;47978;49.118;12.146;2023-12-20T15:33:56;97318.84;;;4.01;98.47
62025;BME280;47978;49.118;12.146;2023-12-20T15:37:59;97310.03;;;3.83;98.06
62025;BME280;47978;49.118;12.146;2023-12-20T15:42:00;97313.31;;;3.86;99.07
62025;BME280;47978;49.118;12.146;2023-12-20T15:46:02;97320.94;;;3.73;98.91
62025;BME280;47978;49.118;12.146;2023-12-20T15:50:06;97326.63;;;3.67;99.10
62025;BME280;47978;49.118;12.146;2023-12-20T15:54:09;97337.88;;;3.70;99.67
62025;BME280;47978;49.118;12.146;2023-12-20T15:58:11;97341.38;;;3.60;99.54
62025;BME280;47978;49.118;12.146;2023-12-20T16:02:12;97343.31;;;3.65;99.61
62025;BME280;47978;49.118;12.146;2023-12-20T16:06:14;97342.75;;;3.63;99.87
62025;BME280;47978;49.118;12.146;2023-12-20T16:10:17;97349.78;;;3.49;99.85
62025;BME280;47978;49.118;12.146;2023-12-20T16:14:18;97356.06;;;3.49;100.00
62025;BME280;47978;49.118;12.146;2023-12-20T16:18:20;97360.81;;;3.69;99.60
62025;BME280;47978;49.118;12.146;2023-12-20T16:22:21;97352.53;;;3.54;99.98
62025;BME280;47978;49.118;12.146;2023-12-20T16:26:24;97346.50;;;3.52;99.88
62025;BME280;47978;49.118;12.146;2023-12-20T16:30:25;97353.28;;;3.44;100.00
62025;BME280;47978;49.118;12.146;2023-12-20T16:34:27;97355.81;;;3.51;100.00
62025;BME280;47978;49.118;12.146;2023-12-20T16:38:28;97356.13;;;3.59;98.79
62025;BME280;47978;49.118;12.146;2023-12-20T16:42:31;97351.41;;;3.50;99.66
62025;BME280;47978;49.118;12.146;2023-12-20T16:46:32;97358.06;;;3.59;99.21
62025;BME280;47978;49.118;12.146;2023-12-20T16:50:34;97341.03;;;3.52;99.24
62025;BME280;47978;49.118;12.146;2023-12-20T16:54:35;97342.19;;;3.56;98.81
62025;BME280;47978;49.118;12.146;2023-12-20T16:58:38;97333.97;;;3.56;99.26
62025;BME280;47978;49.118;12.146;2023-12-20T17:02:40;97330.41;;;3.55;99.10
62025;BME280;47978;49.118;12.146;2023-12-20T17:06:41;97326.34;;;3.63;99.33
62025;BME280;47978;49.118;12.146;2023-12-20T17:10:42;97323.00;;;3.51;99.07
62025;BME280;47978;49.118;12.146;2023-12-20T17:14:45;97324.16;;;3.60;98.42
62025;BME280;47978;49.118;12.146;2023-12-20T17:18:47;97330.69;;;3.54;98.38
62025;BME280;47978;49.118;12.146;2023-12-20T17:22:48;97338.66;;;3.66;98.46
62025;BME280;47978;49.118;12.146;2023-12-20T17:26:50;97344.69;;;3.68;97.45
62025;BME280;47978;49.118;12.146;2023-12-20T17:30:53;97354.75;;;3.57;97.99
62025;BME280;47978;49.118;12.146;2023-12-20T17:34:54;97364.38;;;3.65;97.62
62025;BME280;47978;49.118;12.146;2023-12-20T17:38:56;97353.72;;;3.68;97.62
62025;BME280;47978;49.118;12.146;2023-12-20T17:42:57;97357.56;;;3.67;97.21
62025;BME280;47978;49.118;12.146;2023-12-20T17:47:00;97362.81;;;3.79;97.08
62025;BME280;47978;49.118;12.146;2023-12-20T17:51:01;97357.56;;;3.67;97.87
62025;BME280;47978;49.118;12.146;2023-12-20T17:55:03;97336.47;;;3.63;97.54
62025;BME280;47978;49.118;12.146;2023-12-20T17:59:05;97344.97;;;3.71;98.05
62025;BME280;47978;49.118;12.146;2023-12-20T18:03:08;97344.97;;;3.71;97.98
62025;BME280;47978;49.118;12.146;2023-12-20T18:07:09;97353.41;;;3.59;98.49
62025;BME280;47978;49.118;12.146;2023-12-20T18:11:11;97349.56;;;3.60;98.06
62025;BME280;47978;49.118;12.146;2023-12-20T18:15:13;97349.81;;;3.54;98.55
62025;BME280;47978;49.118;12.146;2023-12-20T18:19:16;97352.88;;;3.63;99.09
62025;BME280;47978;49.118;12.146;2023-12-20T18:23:17;97357.00;;;3.65;97.68
62025;BME280;47978;49.118;12.146;2023-12-20T18:27:19;97360.81;;;3.69;97.65
62025;BME280;47978;49.118;12.146;2023-12-20T18:31:20;97358.38;;;3.73;96.99
62025;BME280;47978;49.118;12.146;2023-12-20T18:35:23;97358.13;;;3.74;97.09
62025;BME280;47978;49.118;12.146;2023-12-20T18:39:24;97357.88;;;3.76;97.00
62025;BME280;47978;49.118;12.146;2023-12-20T18:43:26;97353.47;;;3.75;97.31
62025;BME280;47978;49.118;12.146;2023-12-20T18:47:27;97354.28;;;3.75;96.77
62025;BME280;47978;49.118;12.146;2023-12-20T18:51:30;97364.41;;;3.75;96.68
62025;BME280;47978;49.118;12.146;2023-12-20T18:55:32;97350.16;;;3.73;96.63
62025;BME280;47978;49.118;12.146;2023-12-20T18:59:33;97366.28;;;3.69;97.37
62025;BME280;47978;49.118;12.146;2023-12-20T19:03:35;97361.09;;;3.68;98.76
62025;BME280;47978;49.118;12.146;2023-12-20T19:07:38;97362.75;;;3.69;98.68
62025;BME280;47978;49.118;12.146;2023-12-20T19:11:39;97370.38;;;3.67;100.00
62025;BME280;47978;49.118;12.146;2023-12-20T19:15:41;97367.56;;;3.51;100.00
62025;BME280;47978;49.118;12.146;2023-12-20T19:19:42;97373.47;;;3.38;100.00
62025;BME280;47978;49.118;12.146;2023-12-20T19:23:45;97372.13;;;3.41;100.00
62025;BME280;47978;49.118;12.146;2023-12-20T19:27:46;97365.50;;;3.31;100.00
62025;BME280;47978;49.118;12.146;2023-12-20T19:31:48;97360.56;;;3.28;100.00
62025;BME280;47978;49.118;12.146;2023-12-20T19:35:50;97352.38;;;3.28;100.00
62025;BME280;47978;49.118;12.146;2023-12-20T19:39:52;97348.75;;;3.18;100.00
62025;BME280;47978;49.118;12.146;2023-12-20T19:43:54;97344.91;;;3.13;100.00
62025;BME280;47978;49.118;12.146;2023-12-20T19:47:55;97344.13;;;3.23;100.00
62025;BME280;47978;49.118;12.146;2023-12-20T19:51:57;97352.25;;;3.13;100.00
62025;BME280;47978;49.118;12.146;2023-12-20T19:56:00;97352.53;;;3.11;100.00
62025;BME280;47978;49.118;12.146;2023-12-20T20:00:01;97344.91;;;3.13;100.00
62025;BME280;47978;49.118;12.146;2023-12-20T20:04:03;97347.06;;;3.11;100.00
62025;BME280;47978;49.118;12.146;2023-12-20T20:08:05;97336.66;;;3.08;100.00
62025;BME280;47978;49.118;12.146;2023-12-20T20:12:08;97339.41;;;3.08;100.00
62025;BME280;47978;49.118;12.146;2023-12-20T20:16:09;97336.84;;;2.97;100.00
62025;BME280;47978;49.118;12.146;2023-12-20T20:20:11;97328.22;;;3.15;100.00
62025;BME280;47978;49.118;12.146;2023-12-20T20:24:12;97324.91;;;3.08;100.00
62025;BME280;47978;49.118;12.146;2023-12-20T20:28:15;97331.25;;;3.13;100.00
62025;BME280;47978;49.118;12.146;2023-12-20T20:32:16;97329.72;;;2.96;100.00
62025;BME280;47978;49.118;12.146;2023-12-20T20:36:18;97322.38;;;2.96;100.00
62025;BME280;47978;49.118;12.146;2023-12-20T20:40:19;97313.47;;;3.11;100.00
62025;BME280;47978;49.118;12.146;2023-12-20T20:44:22;97307.09;;;3.00;100.00
62025;BME280;47978;49.118;12.146;2023-12-20T20:48:24;97303.47;;;2.89;100.00
62025;BME280;47978;49.118;12.146;2023-12-20T20:52:36;97302.41;;;2.90;100.00
62025;BME280;47978;49.118;12.146;2023-12-20T20:56:37;97299.16;;;2.93;100.00
62025;BME280;47978;49.118;12.146;2023-12-20T21:00:40;97308.72;;;2.96;100.00
62025;BME280;47978;49.118;12.146;2023-12-20T21:04:42;97299.56;;;2.80;100.00
62025;BME280;47978;49.118;12.146;2023-12-20T21:08:43;97297.53;;;2.98;100.00
62025;BME280;47978;49.118;12.146;2023-12-20T21:12:45;97306.47;;;2.93;100.00